createdAt,value
2023-03-06T00:01:01.494Z,100511.38
2023-03-06T00:03:28.559Z,100514.19
2023-03-06T00:05:57.505Z,100506.88
2023-03-06T00:08:25.724Z,100509.72
2023-03-06T00:10:52.587Z,100509.16
2023-03-06T00:13:20.018Z,100510.13
2023-03-06T00:15:48.109Z,100510.59
2023-03-06T00:18:15.342Z,100506.69
2023-03-06T00:20:43.923Z,100503.69
2023-03-06T00:23:11.448Z,100510.69
2023-03-06T00:25:38.944Z,100502.34
2023-03-06T00:28:06.336Z,100506.78
2023-03-06T00:30:33.134Z,100501.91
2023-03-06T00:32:59.908Z,100498.78
2023-03-06T00:35:26.557Z,100494.44
2023-03-06T00:37:53.405Z,100493.78
2023-03-06T00:40:21.046Z,100491.50
2023-03-06T00:42:48.399Z,100491.97
2023-03-06T00:45:15.951Z,100497.25
2023-03-06T00:47:42.654Z,100491.69
2023-03-06T00:50:10.799Z,100489.25
2023-03-06T00:52:37.443Z,100485.31
2023-03-06T00:55:05.067Z,100486.63
2023-03-06T00:57:31.818Z,100479.34
2023-03-06T00:59:58.374Z,100473.53
2023-03-06T01:02:25.153Z,100477.16
2023-03-06T01:04:51.776Z,100474.59
2023-03-06T01:07:18.561Z,100478.06
2023-03-06T01:09:45.203Z,100468.09
2023-03-06T01:12:11.969Z,100452.41
2023-03-06T01:14:38.646Z,100444.31
2023-03-06T01:17:06.581Z,100434.28
2023-03-06T01:19:33.224Z,100439.56
2023-03-06T01:21:59.840Z,100437.38
2023-03-06T01:24:28.582Z,100437.63
2023-03-06T01:26:57.340Z,100435.28
2023-03-06T01:29:25.076Z,100429.63
2023-03-06T01:31:52.200Z,100418.69
2023-03-06T01:34:18.909Z,100422.31
2023-03-06T01:36:45.614Z,100420.00
2023-03-06T01:39:12.249Z,100416.63
2023-03-06T01:41:38.879Z,100411.75
2023-03-06T01:44:05.534Z,100405.94
2023-03-06T01:46:44.652Z,100407.94
2023-03-06T01:49:25.248Z,100412.50
2023-03-06T01:52:01.735Z,100410.88
2023-03-06T01:54:35.943Z,100415.31
2023-03-06T01:57:09.586Z,100413.69
2023-03-06T01:59:38.620Z,100403.44
2023-03-06T02:02:08.431Z,100406.81
2023-03-06T02:04:36.514Z,100410.19
2023-03-06T02:07:06.627Z,100406.00
2023-03-06T02:09:35.147Z,100405.91
2023-03-06T02:12:03.726Z,100393.09
2023-03-06T02:14:30.513Z,100391.31
2023-03-06T02:16:57.196Z,100390.53
2023-03-06T02:19:38.573Z,100390.25
2023-03-06T02:22:05.330Z,100385.03
2023-03-06T02:24:51.573Z,100390.03
2023-03-06T02:27:19.629Z,100386.66
2023-03-06T02:29:46.847Z,100384.09
2023-03-06T02:32:13.479Z,100374.66
2023-03-06T02:34:40.139Z,100373.03
2023-03-06T02:37:10.913Z,100364.44
2023-03-06T02:39:42.913Z,100367.66
2023-03-06T02:42:09.827Z,100359.06
2023-03-06T02:44:37.229Z,100357.28
2023-03-06T02:47:03.960Z,100355.69
2023-03-06T02:49:30.588Z,100351.25
2023-03-06T02:51:57.153Z,100352.16
2023-03-06T02:54:23.759Z,100352.16
2023-03-06T02:56:51.469Z,100356.22
2023-03-06T02:59:18.219Z,100350.28
2023-03-06T03:01:44.824Z,100341.69
2023-03-06T03:04:11.524Z,100340.03
2023-03-06T03:06:38.189Z,100337.47
2023-03-06T03:09:04.927Z,100341.81
2023-03-06T03:11:31.579Z,100341.69
2023-03-06T03:13:58.169Z,100341.69
2023-03-06T03:16:24.888Z,100335.63
2023-03-06T03:18:51.461Z,100332.25
2023-03-06T03:21:18.827Z,100330.75
2023-03-06T03:23:45.597Z,100326.47
2023-03-06T03:26:15.756Z,100327.38
2023-03-06T03:28:43.750Z,100323.91
2023-03-06T03:31:11.724Z,100317.00
2023-03-06T03:33:39.825Z,100315.25
2023-03-06T03:36:08.983Z,100313.38
2023-03-06T03:38:35.881Z,100303.94
2023-03-06T03:41:03.571Z,100301.41
2023-03-06T03:43:30.258Z,100293.59
2023-03-06T03:45:56.783Z,100289.16
2023-03-06T03:48:23.414Z,100290.09
2023-03-06T03:50:50.046Z,100286.84
2023-03-06T03:53:17.017Z,100286.84
2023-03-06T03:55:43.685Z,100282.53
2023-03-06T03:58:10.264Z,100283.34
2023-03-06T04:00:36.813Z,100273.91
2023-03-06T04:03:03.540Z,100275.53
2023-03-06T04:05:30.133Z,100273.13
2023-03-06T04:07:56.791Z,100277.28
2023-03-06T04:10:23.326Z,100266.22
2023-03-06T04:12:50.006Z,100268.78
2023-03-06T04:15:16.690Z,100271.34
2023-03-06T04:17:43.268Z,100262.16
2023-03-06T04:20:10.595Z,100260.31
2023-03-06T04:22:37.237Z,100263.66
2023-03-06T04:25:04.169Z,100263.56
2023-03-06T04:27:30.700Z,100258.44
2023-03-06T04:29:57.496Z,100258.28
2023-03-06T04:32:24.230Z,100258.44
2023-03-06T04:34:51.167Z,100254.91
2023-03-06T04:37:23.589Z,100250.59
2023-03-06T04:39:50.386Z,100249.53
2023-03-06T04:42:17.381Z,100247.13
2023-03-06T04:44:44.955Z,100251.16
2023-03-06T04:47:11.827Z,100242.69
2023-03-06T04:49:39.527Z,100239.16
2023-03-06T04:52:06.398Z,100244.16
2023-03-06T04:54:33.206Z,100237.94
2023-03-06T04:56:59.826Z,100233.66
2023-03-06T04:59:26.389Z,100232.81
2023-03-06T05:01:53.161Z,100232.81
2023-03-06T05:04:19.852Z,100231.09
2023-03-06T05:06:46.438Z,100226.91
2023-03-06T05:09:13.127Z,100231.91
2023-03-06T05:11:39.654Z,100234.47
2023-03-06T05:14:06.288Z,100225.84
2023-03-06T05:16:32.945Z,100224.78
2023-03-06T05:18:59.606Z,100228.94
2023-03-06T05:21:26.280Z,100222.75
2023-03-06T05:23:53.145Z,100222.06
2023-03-06T05:26:19.896Z,100224.63
2023-03-06T05:28:46.457Z,100222.88
2023-03-06T05:31:13.138Z,100218.81
2023-03-06T05:33:39.895Z,100218.81
2023-03-06T05:36:08.584Z,100218.66
2023-03-06T05:38:35.268Z,100221.50
2023-03-06T05:41:01.893Z,100222.69
2023-03-06T05:43:28.456Z,100218.63
2023-03-06T05:46:04.354Z,100218.91
2023-03-06T05:48:31.518Z,100211.91
2023-03-06T05:50:59.283Z,100210.16
2023-03-06T05:53:26.876Z,100211.25
2023-03-06T05:56:02.721Z,100205.31
2023-03-06T05:58:30.556Z,100206.13
2023-03-06T06:00:57.258Z,100206.78
2023-03-06T06:03:24.976Z,100203.56
2023-03-06T06:05:52.436Z,100204.34
2023-03-06T06:08:21.125Z,100203.41
2023-03-06T06:10:47.761Z,100206.66
2023-03-06T06:13:14.578Z,100207.59
2023-03-06T06:15:41.205Z,100209.22
2023-03-06T06:18:07.869Z,100202.34
2023-03-06T06:20:35.540Z,100199.78
2023-03-06T06:23:02.162Z,100201.78
2023-03-06T06:25:28.732Z,100209.47
2023-03-06T06:27:56.658Z,100212.72
2023-03-06T06:30:24.209Z,100213.41
2023-03-06T06:32:51.058Z,100221.75
2023-03-06T06:35:17.942Z,100209.88
2023-03-06T06:37:44.674Z,100215.97
2023-03-06T06:40:11.879Z,100218.53
2023-03-06T06:42:40.247Z,100218.53
2023-03-06T06:45:10.902Z,100215.81
2023-03-06T06:47:41.413Z,100212.59
2023-03-06T06:50:12.598Z,100225.25
2023-03-06T06:52:39.331Z,100212.59
2023-03-06T06:55:06.646Z,100215.81
2023-03-06T06:57:33.678Z,100215.44
2023-03-06T07:00:00.515Z,100218.56
2023-03-06T07:02:27.145Z,100212.22
2023-03-06T07:05:03.714Z,100212.66
2023-03-06T07:07:34.942Z,100216.00
2023-03-06T07:10:01.589Z,100218.44
2023-03-06T07:12:32.476Z,100218.16
2023-03-06T07:14:59.175Z,100223.72
2023-03-06T07:17:26.080Z,100224.25
2023-03-06T07:19:52.657Z,100222.63
2023-03-06T07:22:19.222Z,100224.81
2023-03-06T07:24:45.817Z,100230.09
2023-03-06T07:27:12.456Z,100233.84
2023-03-06T07:29:39.018Z,100229.16
2023-03-06T07:32:05.822Z,100231.44
2023-03-06T07:34:32.493Z,100231.44
2023-03-06T07:36:59.117Z,100240.88
2023-03-06T07:39:25.734Z,100238.19
2023-03-06T07:41:52.426Z,100238.56
2023-03-06T07:44:19.439Z,100237.78
2023-03-06T07:46:46.204Z,100241.00
2023-03-06T07:49:12.815Z,100239.13
2023-03-06T07:51:40.557Z,100238.31
2023-03-06T07:54:07.124Z,100236.84
2023-03-06T07:56:35.104Z,100235.22
2023-03-06T07:59:01.812Z,100237.41
2023-03-06T08:01:28.833Z,100241.41
2023-03-06T08:03:55.956Z,100245.47
2023-03-06T08:06:26.960Z,100246.16
2023-03-06T08:08:54.697Z,100246.97
2023-03-06T08:11:24.306Z,100249.25
2023-03-06T08:13:52.865Z,100249.94
2023-03-06T08:16:21.635Z,100251.28
2023-03-06T08:18:49.754Z,100259.66
2023-03-06T08:21:23.184Z,100261.13
2023-03-06T08:23:50.863Z,100259.94
2023-03-06T08:26:20.821Z,100261.81
2023-03-06T08:28:47.935Z,100257.75
2023-03-06T08:31:26.258Z,100261.56
2023-03-06T08:33:53.983Z,100261.66
2023-03-06T08:36:21.098Z,100259.09
2023-03-06T08:38:47.892Z,100251.97
2023-03-06T08:41:14.546Z,100268.53
2023-03-06T08:43:41.202Z,100259.34
2023-03-06T08:46:07.970Z,100263.66
2023-03-06T08:48:34.627Z,100266.78
2023-03-06T08:51:02.488Z,100265.56
2023-03-06T08:53:42.258Z,100269.44
2023-03-06T08:56:21.932Z,100257.97
2023-03-06T08:58:50.662Z,100266.34
2023-03-06T09:01:20.552Z,100270.09
2023-03-06T09:03:47.528Z,100267.09
2023-03-06T09:06:14.426Z,100270.59
2023-03-06T09:08:44.612Z,100268.94
2023-03-06T09:11:13.195Z,100270.75
2023-03-06T09:13:40.323Z,100269.06
2023-03-06T09:16:08.469Z,100264.50
2023-03-06T09:18:37.161Z,100263.41
2023-03-06T09:21:04.763Z,100265.31
2023-03-06T09:23:32.049Z,100261.59
2023-03-06T09:26:00.595Z,100259.50
2023-03-06T09:28:27.608Z,100265.47
2023-03-06T09:30:54.603Z,100265.38
2023-03-06T09:33:22.051Z,100268.09
2023-03-06T09:35:56.641Z,100261.91
2023-03-06T09:38:25.992Z,100256.22
2023-03-06T09:41:00.158Z,100260.69
2023-03-06T09:43:38.158Z,100257.84
2023-03-06T09:46:13.797Z,100261.31
2023-03-06T09:49:18.215Z,100265.06
2023-03-06T09:51:50.537Z,100257.91
2023-03-06T09:54:17.265Z,100264.56
2023-03-06T09:56:48.870Z,100265.22
2023-03-06T09:59:24.699Z,100257.06
2023-03-06T10:02:10.740Z,100260.06
2023-03-06T10:04:55.984Z,100248.31
2023-03-06T10:07:25.783Z,100256.25
2023-03-06T10:09:56.194Z,100257.06
2023-03-06T10:12:32.850Z,100253.34
2023-03-06T10:14:59.508Z,100264.88
2023-03-06T10:17:30.744Z,100261.97
2023-03-06T10:19:57.317Z,100255.66
2023-03-06T10:22:33.026Z,100255.00
2023-03-06T10:25:32.444Z,100252.72
2023-03-06T10:28:19.866Z,100259.63
2023-03-06T10:30:51.990Z,100258.84
2023-03-06T10:33:27.674Z,100259.97
2023-03-06T10:35:55.599Z,100252.06
2023-03-06T10:38:33.028Z,100254.75
2023-03-06T10:41:22.704Z,100255.78
2023-03-06T10:44:01.478Z,100257.13
2023-03-06T10:46:31.907Z,100250.09
2023-03-06T10:49:01.662Z,100255.53
2023-03-06T10:51:29.504Z,100252.91
2023-03-06T10:54:00.728Z,100252.59
2023-03-06T10:56:40.227Z,100260.91
2023-03-06T10:59:25.328Z,100261.84
2023-03-06T11:02:23.169Z,100263.06
2023-03-06T11:04:53.483Z,100265.31
2023-03-06T11:07:23.173Z,100263.50
2023-03-06T11:09:59.145Z,100272.41
2023-03-06T11:12:42.336Z,100266.34
2023-03-06T11:15:14.968Z,100268.38
2023-03-06T11:17:58.520Z,100259.75
2023-03-06T11:20:53.219Z,100258.41
2023-03-06T11:23:37.033Z,100262.16
2023-03-06T11:26:15.855Z,100257.00
2023-03-06T11:28:56.401Z,100253.63
2023-03-06T11:31:28.153Z,100250.59
2023-03-06T11:34:22.239Z,100247.69
2023-03-06T11:36:58.554Z,100244.59
2023-03-06T11:39:44.578Z,100242.19
2023-03-06T11:42:23.427Z,100244.75
2023-03-06T11:45:02.894Z,100237.84
2023-03-06T11:47:36.479Z,100238.63
2023-03-06T11:50:29.131Z,100235.75
2023-03-06T11:53:03.265Z,100234.75
2023-03-06T11:56:03.521Z,100232.69
2023-03-06T11:58:38.953Z,100232.34
2023-03-06T12:01:43.954Z,100231.06
2023-03-06T12:04:25.789Z,100227.50
2023-03-06T12:07:10.300Z,100231.38
2023-03-06T12:09:47.053Z,100229.13
2023-03-06T12:12:20.816Z,100232.66
2023-03-06T12:15:00.252Z,100232.50
2023-03-06T12:17:50.809Z,100226.56
2023-03-06T12:20:44.322Z,100230.38
2023-03-06T12:23:16.955Z,100221.53
2023-03-06T12:25:49.868Z,100218.47
2023-03-06T12:28:19.469Z,100214.13
2023-03-06T12:31:15.410Z,100212.84
2023-03-06T12:34:23.367Z,100213.31
2023-03-06T12:37:08.999Z,100211.38
2023-03-06T12:39:53.874Z,100218.31
2023-03-06T12:42:23.561Z,100208.81
2023-03-06T12:44:58.320Z,100208.13
2023-03-06T12:47:28.028Z,100203.78
2023-03-06T12:50:08.264Z,100201.69
2023-03-06T12:52:35.937Z,100205.88
2023-03-06T12:55:07.616Z,100200.09
2023-03-06T12:57:35.524Z,100203.00
2023-03-06T13:00:02.097Z,100200.41
2023-03-06T13:02:44.067Z,100191.34
2023-03-06T13:05:38.380Z,100194.09
2023-03-06T13:08:26.994Z,100195.22
2023-03-06T13:11:26.207Z,100197.19
2023-03-06T13:13:52.761Z,100191.19
2023-03-06T13:16:33.075Z,100179.22
2023-03-06T13:19:12.283Z,100178.59
2023-03-06T13:21:41.822Z,100175.66
2023-03-06T13:24:28.906Z,100184.22
2023-03-06T13:27:01.355Z,100184.22
2023-03-06T13:29:37.047Z,100164.09
2023-03-06T13:32:03.702Z,100171.03
2023-03-06T13:34:48.604Z,100162.78
2023-03-06T13:37:23.239Z,100161.97
2023-03-06T13:39:52.536Z,100165.50
2023-03-06T13:42:34.114Z,100162.75
2023-03-06T13:45:06.687Z,100156.16
2023-03-06T13:48:24.554Z,100150.19
2023-03-06T13:50:47.357Z,100143.03
2023-03-06T13:53:20.581Z,100147.38
2023-03-06T13:56:11.354Z,100148.34
2023-03-06T13:59:02.422Z,100133.47
2023-03-06T14:01:50.949Z,100129.91
2023-03-06T14:04:28.375Z,100130.19
2023-03-06T14:07:33.488Z,100125.59
2023-03-06T14:10:14.777Z,100118.53
2023-03-06T14:13:05.841Z,100116.09
2023-03-06T14:15:45.911Z,100117.53
2023-03-06T14:18:21.274Z,100111.50
2023-03-06T14:20:56.430Z,100107.00
2023-03-06T14:23:43.547Z,100104.47
2023-03-06T14:26:15.407Z,100101.88
2023-03-06T14:28:53.951Z,100092.00
2023-03-06T14:31:23.327Z,100099.25
2023-03-06T14:33:58.767Z,100091.66
2023-03-06T14:36:45.036Z,100090.22
2023-03-06T14:39:37.066Z,100082.59
2023-03-06T14:42:22.108Z,100085.03
2023-03-06T14:45:00.416Z,100080.84
2023-03-06T14:47:30.187Z,100082.00
2023-03-06T14:50:29.207Z,100080.03
2023-03-06T14:53:04.256Z,100075.34
2023-03-06T14:55:34.675Z,100072.94
2023-03-06T14:58:05.472Z,100069.06
2023-03-06T15:00:40.246Z,100067.78
2023-03-06T15:03:15.412Z,100068.94
2023-03-06T15:05:45.174Z,100063.63
2023-03-06T15:08:18.365Z,100063.44
2023-03-06T15:11:00.413Z,100065.41
2023-03-06T15:13:29.378Z,100049.78
2023-03-06T15:16:06.693Z,100049.59
2023-03-06T15:18:39.438Z,100042.31
2023-03-06T15:21:20.426Z,100040.84
2023-03-06T15:23:50.004Z,100036.13
2023-03-06T15:26:33.690Z,100026.97
2023-03-06T15:29:10.766Z,100021.94
2023-03-06T15:31:42.764Z,100022.56
2023-03-06T15:34:09.892Z,100025.34
2023-03-06T15:36:43.959Z,100018.59
2023-03-06T15:39:30.071Z,100015.22
2023-03-06T15:42:19.199Z,100007.00
2023-03-06T15:44:54.572Z,100001.34
2023-03-06T15:47:23.756Z,99999.78
2023-03-06T15:49:52.589Z,99993.78
2023-03-06T15:52:20.428Z,99990.72
2023-03-06T15:54:47.212Z,99980.25
2023-03-06T15:57:25.212Z,99982.19
2023-03-06T15:59:52.724Z,99976.03
2023-03-06T16:02:22.429Z,99970.06
2023-03-06T16:04:49.665Z,99972.19
2023-03-06T16:07:16.790Z,99968.34
2023-03-06T16:09:44.019Z,99969.19
2023-03-06T16:12:19.305Z,99965.16
2023-03-06T16:14:50.272Z,99959.38
2023-03-06T16:17:17.252Z,99954.19
2023-03-06T16:19:44.103Z,99954.19
2023-03-06T16:22:11.019Z,99944.34
2023-03-06T16:24:37.736Z,99948.09
2023-03-06T16:27:05.185Z,99941.13
2023-03-06T16:29:32.145Z,99937.75
2023-03-06T16:32:00.742Z,99940.81
2023-03-06T16:34:27.655Z,99941.69
2023-03-06T16:36:54.411Z,99935.25
2023-03-06T16:39:23.414Z,99935.09
2023-03-06T16:41:52.047Z,99936.56
2023-03-06T16:44:19.531Z,99934.66
2023-03-06T16:46:49.095Z,99937.72
2023-03-06T16:49:21.187Z,99934.06
2023-03-06T16:51:48.404Z,99928.41
2023-03-06T16:54:15.063Z,99941.81
2023-03-06T16:56:42.507Z,99954.88
2023-03-06T16:59:10.231Z,99957.66
2023-03-06T17:01:37.191Z,99953.50
2023-03-06T17:04:04.232Z,99965.09
2023-03-06T17:06:30.820Z,99955.13
2023-03-06T17:08:59.736Z,99949.47
2023-03-06T17:11:26.889Z,99950.59
2023-03-06T17:13:55.159Z,99953.47
2023-03-06T17:16:22.140Z,99947.19
2023-03-06T17:18:49.623Z,99953.16
2023-03-06T17:21:16.270Z,99947.34
2023-03-06T17:23:44.484Z,99947.66
2023-03-06T17:26:14.989Z,99944.63
2023-03-06T17:28:42.319Z,99949.13
2023-03-06T17:31:16.579Z,99953.75
2023-03-06T17:33:43.752Z,99952.81
2023-03-06T17:36:11.305Z,99945.25
2023-03-06T17:38:38.166Z,99951.53
2023-03-06T17:41:07.308Z,99940.25
2023-03-06T17:43:34.121Z,99938.63
2023-03-06T17:46:06.262Z,99934.75
2023-03-06T17:48:33.840Z,99930.91
2023-03-06T17:51:00.489Z,99933.78
2023-03-06T17:53:27.659Z,99928.47
2023-03-06T17:55:55.384Z,99932.41
2023-03-06T17:58:21.990Z,99927.75
2023-03-06T18:00:49.282Z,99924.53
2023-03-06T18:03:16.002Z,99920.19
2023-03-06T18:05:42.781Z,99911.50
2023-03-06T18:08:10.307Z,99910.84
2023-03-06T18:10:41.869Z,99902.78
2023-03-06T18:13:09.432Z,99906.81
2023-03-06T18:15:40.568Z,99901.03
2023-03-06T18:18:08.181Z,99901.03
2023-03-06T18:20:40.103Z,99887.50
2023-03-06T18:23:06.835Z,99894.56
2023-03-06T18:25:33.689Z,99883.16
2023-03-06T18:28:00.443Z,99871.41
2023-03-06T18:30:27.397Z,99873.78
2023-03-06T18:32:54.756Z,99864.47
2023-03-06T18:35:22.037Z,99858.66
2023-03-06T18:37:48.732Z,99858.50
2023-03-06T18:40:15.757Z,99856.38
2023-03-06T18:42:42.464Z,99857.34
2023-03-06T18:45:11.382Z,99860.06
2023-03-06T18:47:38.149Z,99844.00
2023-03-06T18:50:05.579Z,99844.16
2023-03-06T18:52:34.703Z,99832.09
2023-03-06T18:55:01.290Z,99827.94
2023-03-06T18:57:30.235Z,99822.78
2023-03-06T18:59:57.248Z,99828.88
2023-03-06T19:02:23.861Z,99830.00
2023-03-06T19:04:50.611Z,99820.50
2023-03-06T19:07:17.373Z,99818.59
2023-03-06T19:09:44.477Z,99819.56
2023-03-06T19:12:11.634Z,99811.03
2023-03-06T19:14:38.519Z,99815.22
2023-03-06T19:17:05.169Z,99812.16
2023-03-06T19:19:31.850Z,99802.81
2023-03-06T19:21:59.494Z,99802.34
2023-03-06T19:24:26.836Z,99798.16
2023-03-06T19:26:53.573Z,99787.09
2023-03-06T19:29:20.297Z,99781.44
2023-03-06T19:31:46.903Z,99778.88
2023-03-06T19:34:13.623Z,99782.56
2023-03-06T19:36:41.011Z,99775.47
2023-03-06T19:39:09.674Z,99771.47
2023-03-06T19:41:36.644Z,99765.38
2023-03-06T19:44:05.011Z,99763.09
2023-03-06T19:46:32.410Z,99761.50
2023-03-06T19:49:02.038Z,99761.50
2023-03-06T19:51:29.313Z,99741.25
2023-03-06T19:53:57.611Z,99744.94
2023-03-06T19:56:27.206Z,99741.56
2023-03-06T19:58:53.993Z,99741.25
2023-03-06T20:01:24.982Z,99724.88
2023-03-06T20:03:59.094Z,99722.97
2023-03-06T20:06:28.882Z,99724.72
2023-03-06T20:08:55.744Z,99725.03
2023-03-06T20:11:25.154Z,99710.59
2023-03-06T20:13:52.063Z,99705.78
2023-03-06T20:16:18.973Z,99713.97
2023-03-06T20:18:45.823Z,99703.53
2023-03-06T20:21:12.875Z,99704.34
2023-03-06T20:23:39.648Z,99693.25
2023-03-06T20:26:12.306Z,99699.31
2023-03-06T20:28:39.787Z,99690.50
2023-03-06T20:31:10.273Z,99676.84
2023-03-06T20:33:37.203Z,99682.16
2023-03-06T20:36:04.270Z,99681.47
2023-03-06T20:38:30.949Z,99669.59
2023-03-06T20:40:58.517Z,99672.00
2023-03-06T20:43:25.060Z,99662.38
2023-03-06T20:46:03.719Z,99663.19
2023-03-06T20:48:30.809Z,99656.75
2023-03-06T20:51:02.711Z,99643.41
2023-03-06T20:53:29.422Z,99648.56
2023-03-06T20:55:56.519Z,99648.56
2023-03-06T20:58:26.052Z,99638.13
2023-03-06T21:00:52.975Z,99625.59
2023-03-06T21:03:19.678Z,99632.34
2023-03-06T21:05:47.881Z,99635.88
2023-03-06T21:08:15.822Z,99622.38
2023-03-06T21:10:44.368Z,99621.75
2023-03-06T21:13:11.578Z,99619.31
2023-03-06T21:15:39.583Z,99614.81
2023-03-06T21:18:06.824Z,99605.66
2023-03-06T21:20:34.364Z,99603.72
2023-03-06T21:23:04.065Z,99603.72
2023-03-06T21:25:31.269Z,99602.16
2023-03-06T21:27:59.193Z,99589.44
2023-03-06T21:30:27.394Z,99584.97
2023-03-06T21:32:54.106Z,99581.72
2023-03-06T21:35:21.085Z,99572.75
2023-03-06T21:37:47.719Z,99572.91
2023-03-06T21:40:14.985Z,99573.06
2023-03-06T21:42:41.732Z,99558.78
2023-03-06T21:45:09.033Z,99562.94
2023-03-06T21:47:38.830Z,99556.38
2023-03-06T21:50:08.094Z,99557.47
2023-03-06T21:52:34.652Z,99554.44
2023-03-06T21:55:01.323Z,99557.97
2023-03-06T21:57:30.012Z,99543.66
2023-03-06T21:59:56.632Z,99534.22
2023-03-06T22:02:23.447Z,99545.44
2023-03-06T22:04:52.481Z,99540.47
2023-03-06T22:07:19.957Z,99541.56
2023-03-06T22:09:47.360Z,99539.81
2023-03-06T22:12:14.548Z,99538.69
2023-03-06T22:14:43.830Z,99521.53
2023-03-06T22:17:10.460Z,99520.91
2023-03-06T22:19:37.200Z,99523.78
2023-03-06T22:22:04.445Z,99500.19
2023-03-06T22:24:32.011Z,99516.53
2023-03-06T22:26:59.022Z,99501.44
2023-03-06T22:29:25.921Z,99498.88
2023-03-06T22:31:53.068Z,99496.19
2023-03-06T22:34:19.822Z,99481.88
2023-03-06T22:36:46.500Z,99478.50
2023-03-06T22:39:14.972Z,99475.13
2023-03-06T22:41:41.718Z,99467.59
2023-03-06T22:44:15.902Z,99464.72
2023-03-06T22:46:42.522Z,99458.28
2023-03-06T22:49:11.850Z,99456.53
2023-03-06T22:51:39.638Z,99451.22
2023-03-06T22:54:07.953Z,99440.19
2023-03-06T22:56:36.311Z,99439.22
2023-03-06T22:59:03.930Z,99441.47
2023-03-06T23:01:33.543Z,99439.53
2023-03-06T23:04:03.026Z,99437.59
2023-03-06T23:06:32.580Z,99430.72
2023-03-06T23:09:08.072Z,99432.97
2023-03-06T23:11:36.708Z,99430.41
2023-03-06T23:14:05.412Z,99416.41
2023-03-06T23:16:33.573Z,99415.63
2023-03-06T23:19:00.318Z,99424.13
2023-03-06T23:21:26.859Z,99410.81
2023-03-06T23:23:54.598Z,99416.59
2023-03-06T23:26:24.084Z,99401.84
2023-03-06T23:28:51.695Z,99396.84
2023-03-06T23:31:22.665Z,99407.78
2023-03-06T23:33:50.025Z,99399.41
2023-03-06T23:36:18.552Z,99396.53
2023-03-06T23:38:45.736Z,99397.16
2023-03-06T23:41:15.273Z,99402.16
2023-03-06T23:43:42.709Z,99396.03
2023-03-06T23:46:09.981Z,99393.28
2023-03-06T23:48:38.927Z,99395.72
2023-03-06T23:51:11.969Z,99393.78
2023-03-06T23:53:38.558Z,99397.81
2023-03-06T23:56:06.670Z,99404.53
2023-03-06T23:58:33.696Z,99400.84
